createdAt,value
2022-11-01T00:01:52.382Z,77.80
2022-11-01T00:04:19.706Z,77.93
2022-11-01T00:06:46.658Z,77.83
2022-11-01T00:09:13.835Z,78.03
2022-11-01T00:11:41.025Z,78.02
2022-11-01T00:14:09.793Z,78.11
2022-11-01T00:16:36.761Z,78.06
2022-11-01T00:19:03.672Z,77.98
2022-11-01T00:21:30.732Z,78.09
2022-11-01T00:23:57.703Z,78.04
2022-11-01T00:26:25.528Z,78.15
2022-11-01T00:28:53.934Z,78.13
2022-11-01T00:31:21.359Z,77.94
2022-11-01T00:33:48.798Z,77.94
2022-11-01T00:36:16.028Z,77.91
2022-11-01T00:38:43.154Z,77.89
2022-11-01T00:41:10.132Z,78.14
2022-11-01T00:43:37.398Z,78.03
2022-11-01T00:46:04.912Z,78.23
2022-11-01T00:48:32.187Z,78.36
2022-11-01T00:50:59.417Z,78.45
2022-11-01T00:53:26.506Z,78.56
2022-11-01T00:55:53.459Z,78.73
2022-11-01T00:58:20.462Z,78.95
2022-11-01T01:00:47.731Z,79.30
2022-11-01T01:03:14.891Z,79.39
2022-11-01T01:05:41.806Z,79.49
2022-11-01T01:08:08.795Z,79.82
2022-11-01T01:10:36.524Z,79.81
2022-11-01T01:13:04.161Z,79.81
2022-11-01T01:15:31.412Z,80.00
2022-11-01T01:17:58.536Z,80.03
2022-11-01T01:20:25.744Z,79.87
2022-11-01T01:22:53.737Z,79.82
2022-11-01T01:25:21.053Z,79.74
2022-11-01T01:27:48.166Z,79.70
2022-11-01T01:30:15.653Z,79.80
2022-11-01T01:32:43.018Z,79.80
2022-11-01T01:35:10.442Z,79.85
2022-11-01T01:37:37.443Z,79.92
2022-11-01T01:40:07.427Z,80.06
2022-11-01T01:42:38.170Z,79.93
2022-11-01T01:45:05.386Z,80.26
2022-11-01T01:47:35.962Z,80.10
2022-11-01T01:50:33.217Z,80.61
2022-11-01T01:53:06.322Z,81.01
2022-11-01T01:55:40.277Z,81.13
2022-11-01T01:58:10.564Z,81.20
2022-11-01T02:00:38.369Z,81.33
2022-11-01T02:03:06.743Z,81.51
2022-11-01T02:05:48.685Z,81.92
2022-11-01T02:08:26.644Z,81.76
2022-11-01T02:11:00.777Z,82.18
2022-11-01T02:13:28.780Z,82.32
2022-11-01T02:16:18.899Z,82.69
2022-11-01T02:18:59.578Z,82.99
2022-11-01T02:22:01.395Z,82.70
2022-11-01T02:24:50.139Z,82.96
2022-11-01T02:27:48.271Z,83.18
2022-11-01T02:30:18.827Z,83.13
2022-11-01T02:32:57.735Z,83.06
2022-11-01T02:36:11.571Z,83.26
2022-11-01T02:38:51.388Z,83.54
2022-11-01T02:41:32.227Z,83.54
2022-11-01T02:44:04.428Z,83.40
2022-11-01T02:46:54.477Z,83.21
2022-11-01T02:49:24.175Z,83.20
2022-11-01T02:51:52.718Z,83.09
2022-11-01T02:54:29.003Z,83.07
2022-11-01T02:57:03.106Z,82.58
2022-11-01T02:59:30.306Z,82.38
2022-11-01T03:02:01.709Z,82.23
2022-11-01T03:04:28.965Z,82.25
2022-11-01T03:07:01.058Z,82.29
2022-11-01T03:09:30.786Z,82.22
2022-11-01T03:12:04.745Z,82.29
2022-11-01T03:14:49.642Z,82.34
2022-11-01T03:17:33.976Z,82.64
2022-11-01T03:20:03.722Z,82.60
2022-11-01T03:22:35.952Z,82.54
2022-11-01T03:25:39.941Z,82.72
2022-11-01T03:28:16.687Z,82.29
2022-11-01T03:30:50.994Z,82.39
2022-11-01T03:33:19.155Z,82.36
2022-11-01T03:35:49.935Z,82.17
2022-11-01T03:38:21.232Z,82.24
2022-11-01T03:40:52.936Z,82.31
2022-11-01T03:43:24.234Z,82.07
2022-11-01T03:45:51.515Z,81.98
2022-11-01T03:48:18.549Z,82.10
2022-11-01T03:50:50.238Z,81.92
2022-11-01T03:53:17.831Z,81.77
2022-11-01T03:55:45.051Z,81.85
2022-11-01T03:58:12.044Z,81.59
2022-11-01T04:00:47.034Z,81.60
2022-11-01T04:03:14.390Z,81.64
2022-11-01T04:05:42.209Z,81.61
2022-11-01T04:08:11.286Z,81.66
2022-11-01T04:10:38.274Z,81.57
2022-11-01T04:13:05.878Z,81.41
2022-11-01T04:15:51.536Z,79.89
2022-11-01T04:21:12.062Z,79.34
2022-11-01T04:23:39.582Z,79.09
2022-11-01T04:26:07.554Z,78.48
2022-11-01T04:28:34.443Z,75.58
2022-11-01T04:31:02.139Z,73.70
2022-11-01T04:33:29.088Z,71.88
2022-11-01T04:35:57.056Z,72.31
2022-11-01T04:38:24.259Z,72.01
2022-11-01T04:40:51.259Z,71.16
2022-11-01T04:43:18.178Z,68.83
2022-11-01T04:45:54.049Z,68.14
2022-11-01T04:48:21.012Z,68.19
2022-11-01T04:50:48.023Z,67.93
2022-11-01T04:53:15.322Z,69.07
2022-11-01T04:55:42.242Z,69.30
2022-11-01T04:58:10.920Z,68.74
2022-11-01T05:00:44.048Z,68.86
2022-11-01T05:03:11.366Z,68.63
2022-11-01T05:05:39.182Z,68.70
2022-11-01T05:08:11.240Z,68.19
2022-11-01T05:10:43.527Z,68.45
2022-11-01T05:13:12.245Z,67.06
2022-11-01T05:15:40.251Z,67.18
2022-11-01T05:18:11.265Z,66.78
2022-11-01T05:20:38.224Z,66.57
2022-11-01T05:23:06.243Z,67.02
2022-11-01T05:25:37.029Z,67.17
2022-11-01T05:28:08.251Z,65.83
2022-11-01T05:30:36.784Z,64.86
2022-11-01T05:33:05.838Z,65.37
2022-11-01T05:35:34.544Z,65.26
2022-11-01T05:38:03.492Z,65.83
2022-11-01T05:40:31.839Z,65.96
2022-11-01T05:42:59.427Z,66.21
2022-11-01T05:45:26.646Z,67.04
2022-11-01T05:47:53.614Z,67.56
2022-11-01T05:50:20.628Z,68.32
2022-11-01T05:52:47.773Z,67.43
2022-11-01T05:55:14.724Z,67.04
2022-11-01T05:57:41.760Z,66.93
2022-11-01T06:00:09.430Z,67.11
2022-11-01T06:02:39.364Z,67.06
2022-11-01T06:05:06.704Z,67.50
2022-11-01T06:07:35.851Z,67.63
2022-11-01T06:10:04.426Z,67.96
2022-11-01T06:12:31.499Z,68.15
2022-11-01T06:14:58.504Z,68.25
2022-11-01T06:17:25.395Z,68.54
2022-11-01T06:19:52.359Z,68.49
2022-11-01T06:22:19.797Z,68.51
2022-11-01T06:24:46.804Z,68.27
2022-11-01T06:27:13.823Z,67.95
2022-11-01T06:29:40.848Z,67.36
2022-11-01T06:32:08.083Z,67.45
2022-11-01T06:34:35.259Z,67.42
2022-11-01T06:37:02.356Z,67.29
2022-11-01T06:39:29.329Z,67.44
2022-11-01T06:41:58.676Z,66.92
2022-11-01T06:44:25.599Z,67.14
2022-11-01T06:46:54.560Z,66.97
2022-11-01T06:49:21.749Z,67.13
2022-11-01T06:51:49.138Z,66.63
2022-11-01T06:54:16.172Z,66.73
2022-11-01T06:56:43.226Z,66.96
2022-11-01T06:59:10.235Z,66.88
2022-11-01T07:01:37.346Z,67.07
2022-11-01T07:04:05.185Z,67.37
2022-11-01T07:06:33.209Z,67.61
2022-11-01T07:09:00.642Z,67.65
2022-11-01T07:11:31.535Z,67.88
2022-11-01T07:14:00.071Z,67.91
2022-11-01T07:16:45.676Z,68.07
2022-11-01T07:19:12.820Z,68.04
2022-11-01T07:21:39.737Z,68.15
2022-11-01T07:24:06.701Z,68.27
2022-11-01T07:26:33.608Z,68.31
2022-11-01T07:29:00.587Z,68.47
2022-11-01T07:31:27.570Z,67.81
2022-11-01T07:33:54.768Z,68.18
2022-11-01T07:36:21.763Z,68.39
2022-11-01T07:38:48.755Z,68.53
2022-11-01T07:41:15.740Z,68.53
2022-11-01T07:43:42.743Z,68.46
2022-11-01T07:46:09.766Z,68.56
2022-11-01T07:48:37.040Z,68.34
2022-11-01T07:51:06.091Z,68.32
2022-11-01T07:53:34.124Z,68.20
2022-11-01T07:56:02.141Z,68.10
2022-11-01T07:58:29.471Z,67.79
2022-11-01T08:00:57.068Z,67.33
2022-11-01T08:03:24.138Z,66.67
2022-11-01T08:05:51.108Z,67.01
2022-11-01T08:08:18.531Z,66.88
2022-11-01T08:10:45.941Z,66.72
2022-11-01T08:13:21.839Z,66.85
2022-11-01T08:15:58.271Z,66.86
2022-11-01T08:18:25.349Z,66.65
2022-11-01T08:20:52.645Z,66.33
2022-11-01T08:23:20.886Z,66.10
2022-11-01T08:25:47.882Z,65.41
2022-11-01T08:28:18.301Z,65.08
2022-11-01T08:30:47.682Z,65.27
2022-11-01T08:33:14.795Z,65.01
2022-11-01T08:35:45.882Z,65.15
2022-11-01T08:38:16.006Z,65.13
2022-11-01T08:40:42.934Z,64.86
2022-11-01T08:43:09.898Z,64.61
2022-11-01T08:45:36.855Z,64.48
2022-11-01T08:48:05.287Z,64.03
2022-11-01T08:50:34.182Z,63.72
2022-11-01T08:53:09.894Z,63.71
2022-11-01T08:55:38.161Z,63.29
2022-11-01T08:58:06.697Z,63.85
2022-11-01T09:00:35.148Z,63.36
2022-11-01T09:03:02.441Z,63.02
2022-11-01T09:05:31.314Z,62.71
2022-11-01T09:08:00.732Z,61.91
2022-11-01T09:10:30.760Z,62.26
2022-11-01T09:12:59.765Z,62.34
2022-11-01T09:15:27.505Z,61.64
2022-11-01T09:17:54.525Z,61.71
2022-11-01T09:20:21.569Z,61.68
2022-11-01T09:22:52.315Z,61.39
2022-11-01T09:25:19.908Z,62.03
2022-11-01T09:27:46.837Z,61.42
2022-11-01T09:30:14.143Z,61.37
2022-11-01T09:32:41.147Z,61.45
2022-11-01T09:35:09.043Z,61.65
2022-11-01T09:37:35.942Z,59.85
2022-11-01T09:40:03.631Z,60.70
2022-11-01T09:42:39.799Z,60.89
2022-11-01T09:45:17.729Z,60.77
2022-11-01T09:47:51.049Z,60.72
2022-11-01T09:50:29.453Z,60.53
2022-11-01T09:52:57.533Z,60.85
2022-11-01T09:55:49.018Z,60.77
2022-11-01T09:58:58.976Z,60.68
2022-11-01T10:01:51.259Z,60.95
2022-11-01T10:04:39.358Z,60.74
2022-11-01T10:07:25.669Z,60.07
2022-11-01T10:10:06.506Z,59.84
2022-11-01T10:13:11.760Z,59.32
2022-11-01T10:15:45.698Z,59.81
2022-11-01T10:18:37.614Z,60.17
2022-11-01T10:21:13.866Z,60.33
2022-11-01T10:23:52.291Z,60.15
2022-11-01T10:26:30.329Z,60.08
2022-11-01T10:29:16.507Z,59.90
2022-11-01T10:31:50.573Z,59.48
2022-11-01T10:34:35.817Z,59.51
2022-11-01T10:37:43.779Z,59.27
2022-11-01T10:40:26.765Z,59.17
2022-11-01T10:42:53.770Z,59.15
2022-11-01T10:45:23.255Z,59.57
2022-11-01T10:47:56.577Z,59.33
2022-11-01T10:50:29.136Z,59.18
2022-11-01T10:53:05.150Z,59.05
2022-11-01T10:55:48.162Z,58.79
2022-11-01T10:58:38.112Z,59.11
2022-11-01T11:01:10.233Z,58.77
2022-11-01T11:03:39.537Z,59.16
2022-11-01T11:06:11.904Z,59.23
2022-11-01T11:08:43.570Z,59.31
2022-11-01T11:11:15.343Z,58.45
2022-11-01T11:13:47.027Z,58.65
2022-11-01T11:16:31.604Z,57.97
2022-11-01T11:19:22.727Z,58.26
2022-11-01T11:21:53.721Z,58.43
2022-11-01T11:24:30.289Z,58.18
2022-11-01T11:26:58.366Z,57.90
2022-11-01T11:29:41.312Z,57.79
2022-11-01T11:32:16.997Z,57.38
2022-11-01T11:34:45.013Z,57.41
2022-11-01T11:37:20.141Z,56.53
2022-11-01T11:40:19.175Z,56.84
2022-11-01T11:42:48.754Z,57.06
2022-11-01T11:45:28.333Z,56.53
2022-11-01T11:47:57.602Z,56.82
2022-11-01T11:50:33.517Z,56.93
2022-11-01T11:53:25.600Z,56.73
2022-11-01T11:55:56.552Z,56.65
2022-11-01T11:58:26.416Z,56.64
2022-11-01T12:01:00.310Z,56.28
2022-11-01T12:03:28.309Z,56.59
2022-11-01T12:05:59.673Z,56.10
2022-11-01T12:08:51.798Z,55.37
2022-11-01T12:11:19.364Z,55.61
2022-11-01T12:14:04.601Z,55.90
2022-11-01T12:16:41.372Z,56.04
2022-11-01T12:19:24.893Z,55.50
2022-11-01T12:21:53.096Z,55.02
2022-11-01T12:24:26.776Z,54.37
2022-11-01T12:26:57.899Z,55.16
2022-11-01T12:29:49.670Z,55.01
2022-11-01T12:32:31.742Z,54.78
2022-11-01T12:35:03.659Z,54.85
2022-11-01T12:37:49.420Z,54.31
2022-11-01T12:40:21.092Z,53.71
2022-11-01T12:42:54.958Z,54.35
2022-11-01T12:45:36.529Z,54.71
2022-11-01T12:48:09.737Z,53.59
2022-11-01T12:50:50.182Z,53.62
2022-11-01T12:53:27.350Z,54.26
2022-11-01T12:55:58.165Z,54.79
2022-11-01T12:58:28.806Z,54.33
2022-11-01T13:01:29.199Z,54.67
2022-11-01T13:04:22.388Z,54.58
2022-11-01T13:07:13.641Z,54.34
2022-11-01T13:09:55.285Z,53.43
2022-11-01T13:12:46.380Z,53.87
2022-11-01T13:15:28.522Z,53.97
2022-11-01T13:18:10.950Z,54.12
2022-11-01T13:20:59.113Z,54.12
2022-11-01T13:23:37.484Z,54.21
2022-11-01T13:26:40.121Z,54.01
2022-11-01T13:29:17.413Z,54.25
2022-11-01T13:32:06.281Z,54.16
2022-11-01T13:35:02.293Z,53.88
2022-11-01T13:38:00.582Z,54.19
2022-11-01T13:40:32.841Z,54.42
2022-11-01T13:43:18.696Z,54.45
2022-11-01T13:45:54.628Z,54.08
2022-11-01T13:48:27.720Z,54.15
2022-11-01T13:51:06.974Z,54.34
2022-11-01T13:53:48.963Z,54.51
2022-11-01T13:56:30.220Z,54.53
2022-11-01T13:58:58.585Z,54.75
2022-11-01T14:01:39.875Z,55.27
2022-11-01T14:04:07.013Z,55.25
2022-11-01T14:06:39.364Z,54.95
2022-11-01T14:09:29.837Z,55.46
2022-11-01T14:12:04.143Z,55.21
2022-11-01T14:14:32.098Z,54.98
2022-11-01T14:17:22.578Z,54.74
2022-11-01T14:20:14.252Z,54.45
2022-11-01T14:22:44.867Z,54.50
2022-11-01T14:25:14.572Z,54.40
2022-11-01T14:27:50.670Z,54.46
2022-11-01T14:30:25.294Z,54.09
2022-11-01T14:33:02.674Z,54.05
2022-11-01T14:35:40.360Z,54.09
2022-11-01T14:38:14.676Z,54.19
2022-11-01T14:40:52.681Z,54.34
2022-11-01T14:43:48.975Z,54.42
2022-11-01T14:46:28.451Z,54.51
2022-11-01T14:49:05.981Z,54.85
2022-11-01T14:51:40.867Z,54.75
2022-11-01T14:54:16.831Z,54.99
2022-11-01T14:56:53.488Z,55.26
2022-11-01T14:59:24.594Z,55.07
2022-11-01T15:02:07.237Z,55.33
2022-11-01T15:04:45.989Z,55.40
2022-11-01T15:07:24.867Z,55.58
2022-11-01T15:10:12.518Z,55.51
2022-11-01T15:12:47.943Z,55.63
2022-11-01T15:15:19.452Z,55.91
2022-11-01T15:18:02.699Z,56.31
2022-11-01T15:20:38.284Z,56.69
2022-11-01T15:23:09.829Z,56.89
2022-11-01T15:25:37.338Z,57.09
2022-11-01T15:28:05.090Z,57.33
2022-11-01T15:30:34.414Z,57.69
2022-11-01T15:33:24.103Z,57.76
2022-11-01T15:36:06.708Z,58.02
2022-11-01T15:38:55.856Z,58.24
2022-11-01T15:41:33.810Z,58.54
2022-11-01T15:44:03.600Z,58.75
2022-11-01T15:46:33.225Z,58.96
2022-11-01T15:49:07.247Z,59.09
2022-11-01T15:51:40.257Z,59.34
2022-11-01T15:54:34.232Z,59.36
2022-11-01T15:57:14.277Z,59.35
2022-11-01T16:00:08.737Z,59.38
2022-11-01T16:02:49.794Z,59.42
2022-11-01T16:05:20.821Z,59.56
2022-11-01T16:07:48.822Z,59.63
2022-11-01T16:10:25.786Z,59.72
2022-11-01T16:12:54.934Z,60.02
2022-11-01T16:15:26.085Z,60.00
2022-11-01T16:17:55.829Z,60.38
2022-11-01T16:20:28.854Z,60.64
2022-11-01T16:22:59.048Z,60.76
2022-11-01T16:25:29.108Z,60.90
2022-11-01T16:28:18.175Z,61.15
2022-11-01T16:30:48.117Z,61.20
2022-11-01T16:33:18.222Z,61.48
2022-11-01T16:35:47.229Z,61.79
2022-11-01T16:38:47.614Z,61.85
2022-11-01T16:41:15.134Z,62.38
2022-11-01T16:43:42.919Z,62.32
2022-11-01T16:46:09.922Z,62.37
2022-11-01T16:49:03.504Z,62.93
2022-11-01T16:51:31.473Z,63.05
2022-11-01T16:54:00.428Z,63.26
2022-11-01T16:56:37.657Z,63.30
2022-11-01T16:59:14.188Z,63.43
2022-11-01T17:01:41.400Z,63.48
2022-11-01T17:04:11.002Z,63.67
2022-11-01T17:06:39.292Z,63.88
2022-11-01T17:09:14.433Z,63.75
2022-11-01T17:11:46.437Z,63.77
2022-11-01T17:14:15.120Z,64.06
2022-11-01T17:16:44.633Z,64.27
2022-11-01T17:19:25.241Z,64.29
2022-11-01T17:21:53.795Z,64.05
2022-11-01T17:24:24.443Z,63.97
2022-11-01T17:26:56.223Z,64.26
2022-11-01T17:29:23.277Z,64.43
2022-11-01T17:31:50.306Z,64.39
2022-11-01T17:34:17.513Z,64.38
2022-11-01T17:36:48.429Z,64.59
2022-11-01T17:39:15.608Z,64.70
2022-11-01T17:41:42.978Z,64.77
2022-11-01T17:44:13.939Z,64.83
2022-11-01T17:46:41.102Z,64.68
2022-11-01T17:49:12.308Z,64.67
2022-11-01T17:51:39.298Z,64.91
2022-11-01T17:54:06.576Z,64.97
2022-11-01T17:56:33.813Z,65.01
2022-11-01T17:59:02.440Z,65.30
2022-11-01T18:01:30.300Z,65.40
2022-11-01T18:03:58.349Z,65.42
2022-11-01T18:06:26.445Z,65.76
2022-11-01T18:08:54.064Z,65.91
2022-11-01T18:11:36.348Z,65.87
2022-11-01T18:14:12.308Z,65.90
2022-11-01T18:16:50.819Z,65.67
2022-11-01T18:19:48.073Z,65.43
2022-11-01T18:22:39.947Z,65.17
2022-11-01T18:25:47.245Z,65.04
2022-11-01T18:28:22.993Z,65.00
2022-11-01T18:30:56.572Z,65.15
2022-11-01T18:33:28.873Z,65.17
2022-11-01T18:36:07.078Z,65.06
2022-11-01T18:38:46.136Z,65.09
2022-11-01T18:41:19.111Z,65.04
2022-11-01T18:43:46.409Z,65.23
2022-11-01T18:46:24.936Z,65.44
2022-11-01T18:49:00.711Z,65.71
2022-11-01T18:51:31.198Z,65.61
2022-11-01T18:54:12.629Z,65.64
2022-11-01T18:56:48.114Z,65.67
2022-11-01T18:59:36.071Z,65.71
2022-11-01T19:02:15.136Z,65.73
2022-11-01T19:04:43.065Z,65.64
2022-11-01T19:07:14.328Z,65.55
2022-11-01T19:09:52.018Z,65.48
2022-11-01T19:12:24.099Z,65.53
2022-11-01T19:15:11.486Z,65.58
2022-11-01T19:17:43.386Z,65.52
2022-11-01T19:20:31.929Z,65.48
2022-11-01T19:23:09.305Z,65.47
2022-11-01T19:25:37.229Z,65.43
2022-11-01T19:28:19.570Z,65.26
2022-11-01T19:30:50.669Z,65.38
2022-11-01T19:33:30.496Z,65.38
2022-11-01T19:35:58.494Z,65.67
2022-11-01T19:38:25.400Z,65.87
2022-11-01T19:40:53.432Z,65.90
2022-11-01T19:43:23.144Z,66.13
2022-11-01T19:45:54.180Z,66.29
2022-11-01T19:48:26.903Z,66.49
2022-11-01T19:50:54.337Z,66.96
2022-11-01T19:53:33.784Z,66.82
2022-11-01T19:56:03.933Z,66.94
2022-11-01T19:58:48.872Z,67.05
2022-11-01T20:01:22.912Z,67.40
2022-11-01T20:03:58.130Z,67.39
2022-11-01T20:06:29.583Z,67.38
2022-11-01T20:09:02.759Z,67.37
2022-11-01T20:11:32.761Z,67.37
2022-11-01T20:14:00.578Z,67.94
2022-11-01T20:16:29.674Z,68.16
2022-11-01T20:18:56.657Z,68.05
2022-11-01T20:21:23.575Z,68.29
2022-11-01T20:23:50.920Z,68.28
2022-11-01T20:26:18.378Z,68.26
2022-11-01T20:28:45.388Z,68.22
2022-11-01T20:31:12.966Z,68.38
2022-11-01T20:33:40.759Z,68.26
2022-11-01T20:36:11.226Z,68.27
2022-11-01T20:38:40.093Z,68.33
2022-11-01T20:41:07.364Z,68.46
2022-11-01T20:43:34.768Z,68.45
2022-11-01T20:46:01.808Z,68.43
2022-11-01T20:48:28.745Z,68.39
2022-11-01T20:50:55.712Z,68.27
2022-11-01T20:53:27.191Z,68.31
2022-11-01T20:55:56.434Z,68.26
2022-11-01T20:58:23.525Z,68.17
2022-11-01T21:00:51.573Z,68.04
2022-11-01T21:03:20.760Z,67.99
2022-11-01T21:05:49.587Z,67.76
2022-11-01T21:08:22.687Z,67.66
2022-11-01T21:11:21.305Z,67.56
2022-11-01T21:13:50.888Z,67.52
2022-11-01T21:16:29.257Z,67.44
2022-11-01T21:19:02.234Z,67.54
2022-11-01T21:21:45.351Z,67.60
2022-11-01T21:24:33.499Z,67.53
2022-11-01T21:27:11.342Z,67.49
2022-11-01T21:29:49.489Z,67.51
2022-11-01T21:32:30.105Z,67.59
2022-11-01T21:34:58.129Z,67.62
2022-11-01T21:37:29.766Z,67.62
2022-11-01T21:40:05.723Z,67.56
2022-11-01T21:42:35.995Z,67.37
2022-11-01T21:45:32.788Z,67.32
2022-11-01T21:48:03.869Z,67.33
2022-11-01T21:50:31.113Z,67.35
2022-11-01T21:52:58.020Z,67.18
2022-11-01T21:55:24.825Z,67.24
2022-11-01T21:57:51.811Z,67.17
2022-11-01T22:00:18.873Z,67.29
2022-11-01T22:02:45.914Z,67.17
2022-11-01T22:05:13.099Z,67.10
2022-11-01T22:07:41.056Z,67.01
2022-11-01T22:10:09.404Z,67.00
2022-11-01T22:12:36.366Z,66.82
2022-11-01T22:15:03.567Z,66.69
2022-11-01T22:17:30.585Z,66.58
2022-11-01T22:19:57.463Z,66.75
2022-11-01T22:22:24.332Z,66.79
2022-11-01T22:24:51.311Z,66.85
2022-11-01T22:27:18.272Z,66.57
2022-11-01T22:29:45.225Z,66.51
2022-11-01T22:32:12.285Z,66.49
2022-11-01T22:34:39.199Z,66.58
2022-11-01T22:37:12.507Z,66.74
2022-11-01T22:39:42.131Z,66.71
2022-11-01T22:42:13.129Z,66.44
2022-11-01T22:44:45.385Z,66.33
2022-11-01T22:47:26.382Z,66.15
2022-11-01T22:49:55.531Z,66.35
2022-11-01T22:52:31.937Z,66.20
2022-11-01T22:55:07.801Z,66.14
2022-11-01T22:57:40.222Z,66.13
2022-11-01T23:00:36.194Z,66.08
2022-11-01T23:03:20.617Z,66.21
2022-11-01T23:05:55.204Z,66.19
2022-11-01T23:08:32.980Z,66.32
2022-11-01T23:11:01.032Z,66.30
2022-11-01T23:13:56.402Z,66.15
2022-11-01T23:16:38.061Z,66.32
2022-11-01T23:19:09.318Z,66.24
2022-11-01T23:21:36.262Z,66.28
2022-11-01T23:24:03.868Z,66.09
2022-11-01T23:26:31.298Z,66.06
2022-11-01T23:28:58.731Z,66.03
2022-11-01T23:31:28.615Z,66.32
2022-11-01T23:33:56.656Z,66.47
2022-11-01T23:36:23.566Z,66.53
2022-11-01T23:38:54.760Z,66.60
2022-11-01T23:41:36.582Z,66.66
2022-11-01T23:44:27.209Z,66.92
2022-11-01T23:47:00.001Z,67.28
2022-11-01T23:49:31.052Z,67.38
2022-11-01T23:51:59.446Z,67.43
2022-11-01T23:54:41.994Z,67.32
2022-11-01T23:57:19.596Z,67.29
2022-11-01T23:59:50.860Z,67.37
